Bao An Cheng 69 — BVBD5 — position and weather

sailwx.info

Track history (hours):
 
Tides and Currents Weather Stations Pressure Air Temp Water Temp Dewpoint Dewpoint Depression Visibility Wind Speed Wind Dir Waves Ship Positions

Bao An Cheng 69

Last reported at 2016-May-31 15:29 UTC. Time now 2016-May-31 16:11 UTC.
Position N 24°49' E 118°43'.

Length 121 m; draft 4.4 m.

Type: Cargo ship. MMSI: 412703090.

Date/timePositionNaut miles runAvg speedWind from/ knotsBaromVisibWave heightAir tempDewpointWater temp
2016-May-31 15:29N 24°49' E 118°43'0 0.0
2016-May-31 14:11N 24°49' E 118°43'0 0.0
2016-May-31 13:05N 24°49' E 118°43'0 0.0
2016-May-31 11:11N 24°49' E 118°43'0 0.0
2016-May-31 09:29N 24°49' E 118°43'0 0.0
2016-May-31 08:29N 24°49' E 118°43'0 0.0
2016-May-31 07:23N 24°49' E 118°43'0 0.1
2016-May-31 03:30N 24°49' E 118°43'5 4.8
2016-May-31 02:33N 24°47' E 118°48'0 0.0
2016-May-31 01:27N 24°47' E 118°48'2 0.3
2016-May-30 19:33N 24°45' E 118°48'1611.8
2016-May-30 18:11N 24°31' E 118°41'812.2
2016-May-30 17:33N 24°25' E 118°35'1212.0
2016-May-30 16:32N 24°16' E 118°27'1111.5
2016-May-30 15:32N 24°08' E 118°18'3510.7
2016-May-30 12:18N 23°46' E 117°48'910.4
2016-May-30 11:27N 23°41' E 117°40'4811.9
2016-May-30 07:24N 23°17' E 116°54'8 9.2
2016-May-30 06:33N 23°19' E 116°46'3 2.9
2016-May-30 05:32N 23°21' E 116°44'0 0.0
2016-May-30 04:26N 23°21' E 116°44'0 0.0
2016-May-30 03:32N 23°21' E 116°44'0 0.0
2016-May-30 02:32N 23°21' E 116°44'0 0.0
2016-May-30 01:32N 23°21' E 116°44'0 0.0
2016-May-30 00:26N 23°21' E 116°44'0 0.0
2016-May-29 23:32N 23°21' E 116°44'0 0.0
2016-May-29 22:32N 23°21' E 116°44'0 0.0
2016-May-29 21:32N 23°21' E 116°44'0 0.0
2016-May-29 20:32N 23°21' E 116°44'0 0.0
2016-May-29 19:26N 23°21' E 116°44'0 0.0
2016-May-29 18:20N 23°21' E 116°44'0 0.0
2016-May-29 17:32N 23°21' E 116°44'0 0.4
2016-May-29 16:33N 23°21' E 116°44'7 7.0
2016-May-29 15:33N 23°16' E 116°50'44 8.9
2016-May-29 10:33N 23°37' E 117°33'8 8.4
2016-May-29 09:33N 23°42' E 117°40'8 8.3
2016-May-29 08:33N 23°47' E 117°47'9 8.2
2016-May-29 07:25N 23°52' E 117°55'22 7.8
2016-May-29 04:33N 24°06' E 118°14'9 8.1
2016-May-29 03:26N 24°12' E 118°22'16 8.1
2016-May-29 01:29N 24°24' E 118°33'10 8.5
2016-May-29 00:18N 24°31' E 118°41'7 9.0
2016-May-28 23:33N 24°37' E 118°44'9 9.2
2016-May-28 22:33N 24°46' E 118°48'6 5.4
2016-May-28 21:29N 24°49' E 118°43'0 0.0
2016-May-28 20:29N 24°49' E 118°43'0 0.0
2016-May-28 17:17N 24°49' E 118°43'0 0.0
2016-May-28 16:23N 24°49' E 118°43'0 0.0
2016-May-28 15:23N 24°49' E 118°43'0 0.0
2016-May-28 11:29N 24°49' E 118°43'0 0.0
2016-May-28 09:26N 24°49' E 118°43'0 0.0
2016-May-28 08:14N 24°49' E 118°43'0 0.0
2016-May-28 07:08N 24°49' E 118°43'0 0.0
2016-May-28 06:32N 24°49' E 118°43'0 0.0
2016-May-28 05:14N 24°49' E 118°43'0 0.0
2016-May-28 04:32N 24°49' E 118°43'0 0.0
2016-May-28 02:11N 24°49' E 118°43'0 0.0
2016-May-28 01:23N 24°49' E 118°43'1 0.4
2016-May-27 22:33N 24°49' E 118°44'3 0.6
2016-May-27 17:27N 24°47' E 118°47'0 0.0
2016-May-27 16:15N 24°47' E 118°47'6010.4
2016-May-27 10:28N 24°00' E 118°06'20 9.6
2016-May-27 08:23N 23°48' E 117°49'910.0
2016-May-27 07:32N 23°44' E 117°41'1110.9
2016-May-27 06:33N 23°37' E 117°32'4410.9
2016-May-27 02:31N 23°16' E 116°50'7 7.4
2016-May-27 01:33N 23°21' E 116°44'0 0.0
2016-May-27 00:15N 23°21' E 116°44'0 0.0
2016-May-26 22:27N 23°21' E 116°44'0 0.0
2016-May-26 18:20N 23°21' E 116°44'0 0.0
2016-May-26 16:32N 23°21' E 116°44'0 0.0
2016-May-26 15:31N 23°21' E 116°44'0 0.0
2016-May-26 13:29N 23°21' E 116°44'3 3.0
2016-May-26 12:33N 23°19' E 116°46'7 7.1
2016-May-26 11:33N 23°17' E 116°53'4310.4
2016-May-26 07:29N 23°37' E 117°34'9 9.9
2016-May-26 06:33N 23°43' E 117°42'10 9.6
2016-May-26 05:32N 23°49' E 117°51'10 9.6
2016-May-26 04:29N 23°55' E 117°59'13 9.4
2016-May-26 03:04N 24°03' E 118°11'4 8.9
2016-May-26 02:33N 24°06' E 118°15'9 9.3
2016-May-26 01:32N 24°13' E 118°22'24 9.5
2016-May-25 23:04N 24°30' E 118°39'510.0
2016-May-25 22:31N 24°35' E 118°43'1010.1
2016-May-25 21:32N 24°44' E 118°48'7 6.8
2016-May-25 20:33N 24°49' E 118°44'0 0.2
2016-May-25 19:32N 24°49' E 118°43'0 0.0
2016-May-25 18:32N 24°49' E 118°43'0 0.0
2016-May-25 17:08N 24°49' E 118°43'0 0.1
2016-May-25 16:32N 24°49' E 118°43'0 0.0
2016-May-25 15:26N 24°49' E 118°43'0 0.0
2016-May-25 14:20N 24°49' E 118°43'0 0.0
2016-May-25 11:26N 24°49' E 118°43'5 5.3
2016-May-25 10:33N 24°47' E 118°48'1010.1
2016-May-25 09:32N 24°37' E 118°44'1110.2
2016-May-25 08:29N 24°28' E 118°38'9 9.6
2016-May-25 07:30N 24°21' E 118°31'9 9.5
2016-May-25 06:33N 24°14' E 118°24'9 9.5
2016-May-25 05:33N 24°08' E 118°17'1310.0
2016-May-25 04:17N 23°60' E 118°06'1810.6
2016-May-25 02:33N 23°49' E 117°50'1111.1
2016-May-25 01:33N 23°42' E 117°41'49 9.7
2016-May-24 20:34N 23°18' E 116°55'8 7.8
2016-May-24 19:34N 23°19' E 116°46'4 3.6
2016-May-24 18:34N 23°21' E 116°43'0 0.0
2016-May-24 17:28N 23°21' E 116°43'0 0.0
2016-May-24 16:16N 23°21' E 116°43'0 0.0
2016-May-24 15:22N 23°21' E 116°43'0 0.0
2016-May-24 14:22N 23°21' E 116°43'0 0.0
2016-May-24 13:28N 23°21' E 116°43'0 0.0
2016-May-24 12:22N 23°21' E 116°43'0 0.0
2016-May-24 11:28N 23°21' E 116°43'0 0.0
2016-May-24 10:22N 23°21' E 116°43'0 0.0
2016-May-24 09:22N 23°21' E 116°43'0 0.0
2016-May-24 08:28N 23°21' E 116°43'0 0.0
2016-May-24 07:28N 23°21' E 116°43'0 0.0
2016-May-24 06:22N 23°21' E 116°43'8 2.9
2016-May-24 03:30N 23°17' E 116°51'47 9.3
2016-May-23 22:31N 23°39' E 117°36'1010.6
2016-May-23 21:33N 23°45' E 117°45'1310.8
2016-May-23 20:22N 23°53' E 117°56'2211.3
2016-May-23 18:26N 24°06' E 118°15'1110.7
2016-May-23 17:24N 24°14' E 118°23'1410.7
2016-May-23 16:07N 24°24' E 118°34'26 3.9
2016-May-23 09:14N 24°49' E 118°43'0 0.0
2016-May-23 08:26N 24°49' E 118°43'0 0.0
2016-May-23 07:32N 24°49' E 118°43'0 0.0
2016-May-23 06:20N 24°49' E 118°43'0 0.1
2016-May-23 05:20N 24°49' E 118°43'0 0.0
2016-May-23 04:20N 24°49' E 118°43'0 0.0
2016-May-23 03:20N 24°49' E 118°43'0 0.0
2016-May-23 02:14N 24°49' E 118°43'0 0.1
2016-May-23 01:26N 24°49' E 118°43'0 0.3
2016-May-23 00:33N 24°49' E 118°43'4 4.4
2016-May-22 23:33N 24°47' E 118°47'0 0.4
2016-May-22 22:32N 24°47' E 118°47'0 0.1
2016-May-22 21:26N 24°47' E 118°47'0 0.0
2016-May-22 20:32N 24°47' E 118°47'0 0.0
2016-May-22 18:32N 24°47' E 118°47'0 0.1
2016-May-22 17:32N 24°47' E 118°47'0 0.0
2016-May-22 16:20N 24°47' E 118°47'0 0.0
2016-May-22 15:14N 24°47' E 118°47'0 0.0
2016-May-22 14:32N 24°47' E 118°47'0 0.0
2016-May-22 13:14N 24°47' E 118°47'0 0.0
2016-May-22 11:23N 24°47' E 118°47'7 8.4
2016-May-22 10:33N 24°40' E 118°46'1210.1
2016-May-22 09:21N 24°30' E 118°39'8 9.6
2016-May-22 08:33N 24°23' E 118°34'9 8.9
2016-May-22 07:33N 24°17' E 118°27'9 8.6
2016-May-22 06:33N 24°11' E 118°21'9 8.5
2016-May-22 05:30N 24°05' E 118°14'11 8.7
2016-May-22 04:14N 23°58' E 118°04'17 9.8
2016-May-22 02:31N 23°48' E 117°49'1111.4
2016-May-22 01:33N 23°41' E 117°40'4711.0
2016-May-21 21:14N 23°18' E 116°55'7 9.8
2016-May-21 20:33N 23°17' E 116°48'6 5.6
2016-May-21 19:32N 23°21' E 116°43'0 0.0
2016-May-21 18:12N 23°21' E 116°43'0 0.0
2016-May-21 17:30N 23°21' E 116°43'0 0.0
2016-May-21 16:30N 23°21' E 116°43'  
Track history (hours):
 
Tides and Currents Weather Stations Pressure Air Temp Water Temp Dewpoint Dewpoint Depression Visibility Wind Speed Wind Dir Waves Ship Positions

Bao An Cheng 69

Last reported at 2016-May-31 15:29 UTC. Time now 2016-May-31 16:11 UTC.
Position N 24°49' E 118°43'.

Length 121 m; draft 4.4 m.

Type: Cargo ship. MMSI: 412703090.

Date/timePositionNaut miles runAvg speedWind from/ knotsBaromVisibWave heightAir tempDewpointWater temp
2016-May-31 15:29N 24°49' E 118°43'0 0.0
2016-May-31 14:11N 24°49' E 118°43'0 0.0
2016-May-31 13:05N 24°49' E 118°43'0 0.0
2016-May-31 11:11N 24°49' E 118°43'0 0.0
2016-May-31 09:29N 24°49' E 118°43'0 0.0
2016-May-31 08:29N 24°49' E 118°43'0 0.0
2016-May-31 07:23N 24°49' E 118°43'0 0.1
2016-May-31 03:30N 24°49' E 118°43'5 4.8
2016-May-31 02:33N 24°47' E 118°48'0 0.0
2016-May-31 01:27N 24°47' E 118°48'2 0.3
2016-May-30 19:33N 24°45' E 118°48'1611.8
2016-May-30 18:11N 24°31' E 118°41'812.2
2016-May-30 17:33N 24°25' E 118°35'1212.0
2016-May-30 16:32N 24°16' E 118°27'1111.5
2016-May-30 15:32N 24°08' E 118°18'3510.7
2016-May-30 12:18N 23°46' E 117°48'910.4
2016-May-30 11:27N 23°41' E 117°40'4811.9
2016-May-30 07:24N 23°17' E 116°54'8 9.2
2016-May-30 06:33N 23°19' E 116°46'3 2.9
2016-May-30 05:32N 23°21' E 116°44'0 0.0
2016-May-30 04:26N 23°21' E 116°44'0 0.0
2016-May-30 03:32N 23°21' E 116°44'0 0.0
2016-May-30 02:32N 23°21' E 116°44'0 0.0
2016-May-30 01:32N 23°21' E 116°44'0 0.0
2016-May-30 00:26N 23°21' E 116°44'0 0.0
2016-May-29 23:32N 23°21' E 116°44'0 0.0
2016-May-29 22:32N 23°21' E 116°44'0 0.0
2016-May-29 21:32N 23°21' E 116°44'0 0.0
2016-May-29 20:32N 23°21' E 116°44'0 0.0
2016-May-29 19:26N 23°21' E 116°44'0 0.0
2016-May-29 18:20N 23°21' E 116°44'0 0.0
2016-May-29 17:32N 23°21' E 116°44'0 0.4
2016-May-29 16:33N 23°21' E 116°44'7 7.0
2016-May-29 15:33N 23°16' E 116°50'44 8.9
2016-May-29 10:33N 23°37' E 117°33'8 8.4
2016-May-29 09:33N 23°42' E 117°40'8 8.3
2016-May-29 08:33N 23°47' E 117°47'9 8.2
2016-May-29 07:25N 23°52' E 117°55'22 7.8
2016-May-29 04:33N 24°06' E 118°14'9 8.1
2016-May-29 03:26N 24°12' E 118°22'16 8.1
2016-May-29 01:29N 24°24' E 118°33'10 8.5
2016-May-29 00:18N 24°31' E 118°41'7 9.0
2016-May-28 23:33N 24°37' E 118°44'9 9.2
2016-May-28 22:33N 24°46' E 118°48'6 5.4
2016-May-28 21:29N 24°49' E 118°43'0 0.0
2016-May-28 20:29N 24°49' E 118°43'0 0.0
2016-May-28 17:17N 24°49' E 118°43'0 0.0
2016-May-28 16:23N 24°49' E 118°43'0 0.0
2016-May-28 15:23N 24°49' E 118°43'0 0.0
2016-May-28 11:29N 24°49' E 118°43'0 0.0
2016-May-28 09:26N 24°49' E 118°43'0 0.0
2016-May-28 08:14N 24°49' E 118°43'0 0.0
2016-May-28 07:08N 24°49' E 118°43'0 0.0
2016-May-28 06:32N 24°49' E 118°43'0 0.0
2016-May-28 05:14N 24°49' E 118°43'0 0.0
2016-May-28 04:32N 24°49' E 118°43'0 0.0
2016-May-28 02:11N 24°49' E 118°43'0 0.0
2016-May-28 01:23N 24°49' E 118°43'1 0.4
2016-May-27 22:33N 24°49' E 118°44'3 0.6
2016-May-27 17:27N 24°47' E 118°47'0 0.0
2016-May-27 16:15N 24°47' E 118°47'6010.4
2016-May-27 10:28N 24°00' E 118°06'20 9.6
2016-May-27 08:23N 23°48' E 117°49'910.0
2016-May-27 07:32N 23°44' E 117°41'1110.9
2016-May-27 06:33N 23°37' E 117°32'4410.9
2016-May-27 02:31N 23°16' E 116°50'7 7.4
2016-May-27 01:33N 23°21' E 116°44'0 0.0
2016-May-27 00:15N 23°21' E 116°44'0 0.0
2016-May-26 22:27N 23°21' E 116°44'0 0.0
2016-May-26 18:20N 23°21' E 116°44'0 0.0
2016-May-26 16:32N 23°21' E 116°44'0 0.0
2016-May-26 15:31N 23°21' E 116°44'0 0.0
2016-May-26 13:29N 23°21' E 116°44'3 3.0
2016-May-26 12:33N 23°19' E 116°46'7 7.1
2016-May-26 11:33N 23°17' E 116°53'4310.4
2016-May-26 07:29N 23°37' E 117°34'9 9.9
2016-May-26 06:33N 23°43' E 117°42'10 9.6
2016-May-26 05:32N 23°49' E 117°51'10 9.6
2016-May-26 04:29N 23°55' E 117°59'13 9.4
2016-May-26 03:04N 24°03' E 118°11'4 8.9
2016-May-26 02:33N 24°06' E 118°15'9 9.3
2016-May-26 01:32N 24°13' E 118°22'24 9.5
2016-May-25 23:04N 24°30' E 118°39'510.0
2016-May-25 22:31N 24°35' E 118°43'1010.1
2016-May-25 21:32N 24°44' E 118°48'7 6.8
2016-May-25 20:33N 24°49' E 118°44'0 0.2
2016-May-25 19:32N 24°49' E 118°43'0 0.0
2016-May-25 18:32N 24°49' E 118°43'0 0.0
2016-May-25 17:08N 24°49' E 118°43'0 0.1
2016-May-25 16:32N 24°49' E 118°43'0 0.0
2016-May-25 15:26N 24°49' E 118°43'0 0.0
2016-May-25 14:20N 24°49' E 118°43'0 0.0
2016-May-25 11:26N 24°49' E 118°43'5 5.3
2016-May-25 10:33N 24°47' E 118°48'1010.1
2016-May-25 09:32N 24°37' E 118°44'1110.2
2016-May-25 08:29N 24°28' E 118°38'9 9.6
2016-May-25 07:30N 24°21' E 118°31'9 9.5
2016-May-25 06:33N 24°14' E 118°24'9 9.5
2016-May-25 05:33N 24°08' E 118°17'1310.0
2016-May-25 04:17N 23°60' E 118°06'1810.6
2016-May-25 02:33N 23°49' E 117°50'1111.1
2016-May-25 01:33N 23°42' E 117°41'49 9.7
2016-May-24 20:34N 23°18' E 116°55'8 7.8
2016-May-24 19:34N 23°19' E 116°46'4 3.6
2016-May-24 18:34N 23°21' E 116°43'0 0.0
2016-May-24 17:28N 23°21' E 116°43'0 0.0
2016-May-24 16:16N 23°21' E 116°43'0 0.0
2016-May-24 15:22N 23°21' E 116°43'0 0.0
2016-May-24 14:22N 23°21' E 116°43'0 0.0
2016-May-24 13:28N 23°21' E 116°43'0 0.0
2016-May-24 12:22N 23°21' E 116°43'0 0.0
2016-May-24 11:28N 23°21' E 116°43'0 0.0
2016-May-24 10:22N 23°21' E 116°43'0 0.0
2016-May-24 09:22N 23°21' E 116°43'0 0.0
2016-May-24 08:28N 23°21' E 116°43'0 0.0
2016-May-24 07:28N 23°21' E 116°43'0 0.0
2016-May-24 06:22N 23°21' E 116°43'8 2.9
2016-May-24 03:30N 23°17' E 116°51'47 9.3
2016-May-23 22:31N 23°39' E 117°36'1010.6
2016-May-23 21:33N 23°45' E 117°45'1310.8
2016-May-23 20:22N 23°53' E 117°56'2211.3
2016-May-23 18:26N 24°06' E 118°15'1110.7
2016-May-23 17:24N 24°14' E 118°23'1410.7
2016-May-23 16:07N 24°24' E 118°34'26 3.9
2016-May-23 09:14N 24°49' E 118°43'0 0.0
2016-May-23 08:26N 24°49' E 118°43'0 0.0
2016-May-23 07:32N 24°49' E 118°43'0 0.0
2016-May-23 06:20N 24°49' E 118°43'0 0.1
2016-May-23 05:20N 24°49' E 118°43'0 0.0
2016-May-23 04:20N 24°49' E 118°43'0 0.0
2016-May-23 03:20N 24°49' E 118°43'0 0.0
2016-May-23 02:14N 24°49' E 118°43'0 0.1
2016-May-23 01:26N 24°49' E 118°43'0 0.3
2016-May-23 00:33N 24°49' E 118°43'4 4.4
2016-May-22 23:33N 24°47' E 118°47'0 0.4
2016-May-22 22:32N 24°47' E 118°47'0 0.1
2016-May-22 21:26N 24°47' E 118°47'0 0.0
2016-May-22 20:32N 24°47' E 118°47'0 0.0
2016-May-22 18:32N 24°47' E 118°47'0 0.1
2016-May-22 17:32N 24°47' E 118°47'0 0.0
2016-May-22 16:20N 24°47' E 118°47'0 0.0
2016-May-22 15:14N 24°47' E 118°47'0 0.0
2016-May-22 14:32N 24°47' E 118°47'0 0.0
2016-May-22 13:14N 24°47' E 118°47'0 0.0
2016-May-22 11:23N 24°47' E 118°47'7 8.4
2016-May-22 10:33N 24°40' E 118°46'1210.1
2016-May-22 09:21N 24°30' E 118°39'8 9.6
2016-May-22 08:33N 24°23' E 118°34'9 8.9
2016-May-22 07:33N 24°17' E 118°27'9 8.6
2016-May-22 06:33N 24°11' E 118°21'9 8.5
2016-May-22 05:30N 24°05' E 118°14'11 8.7
2016-May-22 04:14N 23°58' E 118°04'17 9.8
2016-May-22 02:31N 23°48' E 117°49'1111.4
2016-May-22 01:33N 23°41' E 117°40'4711.0
2016-May-21 21:14N 23°18' E 116°55'7 9.8
2016-May-21 20:33N 23°17' E 116°48'6 5.6
2016-May-21 19:32N 23°21' E 116°43'0 0.0
2016-May-21 18:12N 23°21' E 116°43'0 0.0
2016-May-21 17:30N 23°21' E 116°43'0 0.0
2016-May-21 16:30N 23°21' E 116°43'  

Dump ship's entire track history